sensor_id;sensor_type;location;lat;lon;timestamp;temperature;humidity
10296;DHT22;5193;51.032;6.356;2023-06-19T00:01:42;20.10;99.90
10296;DHT22;5193;51.032;6.356;2023-06-19T00:04:09;20.10;99.90
10296;DHT22;5193;51.032;6.356;2023-06-19T00:06:35;20.00;99.90
10296;DHT22;5193;51.032;6.356;2023-06-19T00:09:00;20.00;99.90
10296;DHT22;5193;51.032;6.356;2023-06-19T00:11:26;20.00;99.90
10296;DHT22;5193;51.032;6.356;2023-06-19T00:13:52;19.90;99.90
10296;DHT22;5193;51.032;6.356;2023-06-19T00:16:17;19.90;99.90
10296;DHT22;5193;51.032;6.356;2023-06-19T00:18:44;19.90;99.90
10296;DHT22;5193;51.032;6.356;2023-06-19T00:21:10;19.80;99.90
10296;DHT22;5193;51.032;6.356;2023-06-19T00:23:36;19.80;99.90
10296;DHT22;5193;51.032;6.356;2023-06-19T00:26:01;19.80;99.90
10296;DHT22;5193;51.032;6.356;2023-06-19T00:28:28;19.70;99.90
10296;DHT22;5193;51.032;6.356;2023-06-19T00:30:53;19.70;99.90
10296;DHT22;5193;51.032;6.356;2023-06-19T00:33:19;19.70;99.90
10296;DHT22;5193;51.032;6.356;2023-06-19T00:35:44;19.60;99.90
10296;DHT22;5193;51.032;6.356;2023-06-19T00:38:10;19.60;99.90
10296;DHT22;5193;51.032;6.356;2023-06-19T00:40:37;19.60;99.90
10296;DHT22;5193;51.032;6.356;2023-06-19T00:43:03;19.50;99.90
10296;DHT22;5193;51.032;6.356;2023-06-19T00:45:29;19.40;99.90
10296;DHT22;5193;51.032;6.356;2023-06-19T00:47:55;19.40;99.90
10296;DHT22;5193;51.032;6.356;2023-06-19T00:50:22;19.40;99.90
10296;DHT22;5193;51.032;6.356;2023-06-19T00:52:48;19.40;99.90
10296;DHT22;5193;51.032;6.356;2023-06-19T00:55:15;19.40;99.90
10296;DHT22;5193;51.032;6.356;2023-06-19T00:57:41;19.30;99.90
10296;DHT22;5193;51.032;6.356;2023-06-19T01:00:08;19.30;99.90
10296;DHT22;5193;51.032;6.356;2023-06-19T01:02:36;19.30;99.90
10296;DHT22;5193;51.032;6.356;2023-06-19T01:05:02;19.30;99.90
10296;DHT22;5193;51.032;6.356;2023-06-19T01:07:50;19.30;99.90
10296;DHT22;5193;51.032;6.356;2023-06-19T01:10:24;19.30;99.90
10296;DHT22;5193;51.032;6.356;2023-06-19T01:13:01;19.40;99.90
10296;DHT22;5193;51.032;6.356;2023-06-19T01:15:28;19.40;99.90
10296;DHT22;5193;51.032;6.356;2023-06-19T01:17:56;19.40;99.90
10296;DHT22;5193;51.032;6.356;2023-06-19T01:20:23;19.30;99.90
10296;DHT22;5193;51.032;6.356;2023-06-19T01:22:48;19.40;99.90
10296;DHT22;5193;51.032;6.356;2023-06-19T01:25:14;19.40;99.90
10296;DHT22;5193;51.032;6.356;2023-06-19T01:27:41;19.40;99.90
10296;DHT22;5193;51.032;6.356;2023-06-19T01:30:09;19.40;99.90
10296;DHT22;5193;51.032;6.356;2023-06-19T01:33:00;19.40;99.90
10296;DHT22;5193;51.032;6.356;2023-06-19T01:35:31;19.40;99.90
10296;DHT22;5193;51.032;6.356;2023-06-19T01:37:59;19.40;99.90
10296;DHT22;5193;51.032;6.356;2023-06-19T01:40:27;19.40;99.90
10296;DHT22;5193;51.032;6.356;2023-06-19T01:42:57;19.40;99.90
10296;DHT22;5193;51.032;6.356;2023-06-19T01:45:24;19.40;99.90
10296;DHT22;5193;51.032;6.356;2023-06-19T01:47:50;19.40;99.90
10296;DHT22;5193;51.032;6.356;2023-06-19T01:50:16;19.50;99.90
10296;DHT22;5193;51.032;6.356;2023-06-19T01:52:43;19.50;99.90
10296;DHT22;5193;51.032;6.356;2023-06-19T01:55:11;19.60;99.90
10296;DHT22;5193;51.032;6.356;2023-06-19T01:57:36;19.80;99.90
10296;DHT22;5193;51.032;6.356;2023-06-19T02:00:04;19.90;99.90
10296;DHT22;5193;51.032;6.356;2023-06-19T02:02:31;20.00;99.90
10296;DHT22;5193;51.032;6.356;2023-06-19T02:04:56;20.10;99.90
10296;DHT22;5193;51.032;6.356;2023-06-19T02:07:23;20.20;99.90
10296;DHT22;5193;51.032;6.356;2023-06-19T02:09:48;20.30;99.90
10296;DHT22;5193;51.032;6.356;2023-06-19T02:12:14;20.40;99.90
10296;DHT22;5193;51.032;6.356;2023-06-19T02:14:39;20.40;99.90
10296;DHT22;5193;51.032;6.356;2023-06-19T02:17:05;20.50;99.90
10296;DHT22;5193;51.032;6.356;2023-06-19T02:19:31;20.50;99.90
10296;DHT22;5193;51.032;6.356;2023-06-19T02:21:56;20.60;99.90
10296;DHT22;5193;51.032;6.356;2023-06-19T02:24:22;20.50;99.90
10296;DHT22;5193;51.032;6.356;2023-06-19T02:26:48;20.50;99.90
10296;DHT22;5193;51.032;6.356;2023-06-19T02:29:13;20.50;99.90
10296;DHT22;5193;51.032;6.356;2023-06-19T02:31:39;20.40;99.90
10296;DHT22;5193;51.032;6.356;2023-06-19T02:34:05;20.40;99.90
10296;DHT22;5193;51.032;6.356;2023-06-19T02:36:31;20.30;99.90
10296;DHT22;5193;51.032;6.356;2023-06-19T02:38:56;20.30;99.90
10296;DHT22;5193;51.032;6.356;2023-06-19T02:41:22;20.20;99.90
10296;DHT22;5193;51.032;6.356;2023-06-19T02:43:48;20.20;99.90
10296;DHT22;5193;51.032;6.356;2023-06-19T02:46:14;20.10;99.90
10296;DHT22;5193;51.032;6.356;2023-06-19T02:48:39;20.10;99.90
10296;DHT22;5193;51.032;6.356;2023-06-19T02:51:05;20.10;99.90
10296;DHT22;5193;51.032;6.356;2023-06-19T02:53:30;20.00;99.90
10296;DHT22;5193;51.032;6.356;2023-06-19T02:55:56;19.90;99.90
10296;DHT22;5193;51.032;6.356;2023-06-19T02:58:21;19.90;99.90
10296;DHT22;5193;51.032;6.356;2023-06-19T03:00:47;19.90;99.90
10296;DHT22;5193;51.032;6.356;2023-06-19T03:03:13;19.80;99.90
10296;DHT22;5193;51.032;6.356;2023-06-19T03:05:39;19.80;99.90
10296;DHT22;5193;51.032;6.356;2023-06-19T03:08:04;19.80;99.90
10296;DHT22;5193;51.032;6.356;2023-06-19T03:10:30;19.80;99.90
10296;DHT22;5193;51.032;6.356;2023-06-19T03:12:56;19.70;99.90
10296;DHT22;5193;51.032;6.356;2023-06-19T03:15:23;19.70;99.90
10296;DHT22;5193;51.032;6.356;2023-06-19T03:17:49;19.60;99.90
10296;DHT22;5193;51.032;6.356;2023-06-19T03:20:14;19.60;99.90
10296;DHT22;5193;51.032;6.356;2023-06-19T03:22:41;19.60;99.90
10296;DHT22;5193;51.032;6.356;2023-06-19T03:25:07;19.60;99.90
10296;DHT22;5193;51.032;6.356;2023-06-19T03:27:33;19.50;99.90
10296;DHT22;5193;51.032;6.356;2023-06-19T03:29:59;19.40;99.90
10296;DHT22;5193;51.032;6.356;2023-06-19T03:32:25;19.40;99.90
10296;DHT22;5193;51.032;6.356;2023-06-19T03:34:50;19.40;99.90
10296;DHT22;5193;51.032;6.356;2023-06-19T03:37:16;19.40;99.90
10296;DHT22;5193;51.032;6.356;2023-06-19T03:39:42;19.30;99.90
10296;DHT22;5193;51.032;6.356;2023-06-19T03:42:07;19.30;99.90
10296;DHT22;5193;51.032;6.356;2023-06-19T03:44:33;19.30;99.90
10296;DHT22;5193;51.032;6.356;2023-06-19T03:46:59;19.30;99.90
10296;DHT22;5193;51.032;6.356;2023-06-19T03:49:24;19.20;99.90
10296;DHT22;5193;51.032;6.356;2023-06-19T03:51:51;19.20;99.90
10296;DHT22;5193;51.032;6.356;2023-06-19T03:54:17;19.20;99.90
10296;DHT22;5193;51.032;6.356;2023-06-19T03:56:42;19.20;99.90
10296;DHT22;5193;51.032;6.356;2023-06-19T03:59:08;19.10;99.90
10296;DHT22;5193;51.032;6.356;2023-06-19T04:01:33;19.10;99.90
10296;DHT22;5193;51.032;6.356;2023-06-19T04:03:59;19.10;99.90
10296;DHT22;5193;51.032;6.356;2023-06-19T04:06:24;19.10;99.90
10296;DHT22;5193;51.032;6.356;2023-06-19T04:08:52;19.10;99.90
10296;DHT22;5193;51.032;6.356;2023-06-19T04:11:17;19.00;99.90
10296;DHT22;5193;51.032;6.356;2023-06-19T04:13:43;19.00;99.90
10296;DHT22;5193;51.032;6.356;2023-06-19T04:16:09;19.10;99.90
10296;DHT22;5193;51.032;6.356;2023-06-19T04:18:34;19.10;99.90
10296;DHT22;5193;51.032;6.356;2023-06-19T04:21:01;19.00;99.90
10296;DHT22;5193;51.032;6.356;2023-06-19T04:23:26;19.00;99.90
10296;DHT22;5193;51.032;6.356;2023-06-19T04:25:52;19.10;99.90
10296;DHT22;5193;51.032;6.356;2023-06-19T04:28:18;19.10;99.90
10296;DHT22;5193;51.032;6.356;2023-06-19T04:30:43;19.20;99.90
10296;DHT22;5193;51.032;6.356;2023-06-19T04:33:09;19.20;99.90
10296;DHT22;5193;51.032;6.356;2023-06-19T04:35:34;19.20;99.90
10296;DHT22;5193;51.032;6.356;2023-06-19T04:38:09;19.20;99.90
10296;DHT22;5193;51.032;6.356;2023-06-19T04:40:35;19.20;99.90
10296;DHT22;5193;51.032;6.356;2023-06-19T04:43:02;19.30;99.90
10296;DHT22;5193;51.032;6.356;2023-06-19T04:45:28;19.30;99.90
10296;DHT22;5193;51.032;6.356;2023-06-19T04:47:53;19.30;99.90
10296;DHT22;5193;51.032;6.356;2023-06-19T04:50:20;19.40;99.90
10296;DHT22;5193;51.032;6.356;2023-06-19T04:52:46;19.40;99.90
10296;DHT22;5193;51.032;6.356;2023-06-19T04:55:12;19.50;99.90
10296;DHT22;5193;51.032;6.356;2023-06-19T04:57:38;19.50;99.90
10296;DHT22;5193;51.032;6.356;2023-06-19T05:00:05;19.60;99.90
10296;DHT22;5193;51.032;6.356;2023-06-19T05:02:32;19.70;99.90
10296;DHT22;5193;51.032;6.356;2023-06-19T05:04:59;19.60;99.90
10296;DHT22;5193;51.032;6.356;2023-06-19T05:07:31;19.70;99.90
10296;DHT22;5193;51.032;6.356;2023-06-19T05:10:00;19.80;99.90
10296;DHT22;5193;51.032;6.356;2023-06-19T05:12:26;19.80;99.90
10296;DHT22;5193;51.032;6.356;2023-06-19T05:14:51;19.90;99.90
10296;DHT22;5193;51.032;6.356;2023-06-19T05:17:17;19.90;99.90
10296;DHT22;5193;51.032;6.356;2023-06-19T05:19:42;20.00;99.90
10296;DHT22;5193;51.032;6.356;2023-06-19T05:22:08;20.20;99.90
10296;DHT22;5193;51.032;6.356;2023-06-19T05:24:33;20.20;99.90
10296;DHT22;5193;51.032;6.356;2023-06-19T05:26:59;20.20;99.90
10296;DHT22;5193;51.032;6.356;2023-06-19T05:29:25;20.30;99.90
10296;DHT22;5193;51.032;6.356;2023-06-19T05:31:51;20.40;99.90
10296;DHT22;5193;51.032;6.356;2023-06-19T05:34:16;20.50;99.90
10296;DHT22;5193;51.032;6.356;2023-06-19T05:36:42;20.70;99.90
10296;DHT22;5193;51.032;6.356;2023-06-19T05:39:10;20.80;99.90
10296;DHT22;5193;51.032;6.356;2023-06-19T05:41:36;20.80;99.90
10296;DHT22;5193;51.032;6.356;2023-06-19T05:44:01;20.90;99.90
10296;DHT22;5193;51.032;6.356;2023-06-19T05:46:27;20.90;99.90
10296;DHT22;5193;51.032;6.356;2023-06-19T05:48:52;20.90;99.90
10296;DHT22;5193;51.032;6.356;2023-06-19T05:51:20;20.90;99.90
10296;DHT22;5193;51.032;6.356;2023-06-19T05:53:45;20.90;99.90
10296;DHT22;5193;51.032;6.356;2023-06-19T05:56:12;20.90;99.90
10296;DHT22;5193;51.032;6.356;2023-06-19T05:58:37;21.00;99.90
10296;DHT22;5193;51.032;6.356;2023-06-19T06:01:03;20.90;99.90
10296;DHT22;5193;51.032;6.356;2023-06-19T06:03:30;20.90;99.90
10296;DHT22;5193;51.032;6.356;2023-06-19T06:05:57;20.80;99.90
10296;DHT22;5193;51.032;6.356;2023-06-19T06:08:29;20.80;99.90
10296;DHT22;5193;51.032;6.356;2023-06-19T06:10:55;20.80;99.90
10296;DHT22;5193;51.032;6.356;2023-06-19T06:13:20;20.80;99.90
10296;DHT22;5193;51.032;6.356;2023-06-19T06:15:46;20.70;99.90
10296;DHT22;5193;51.032;6.356;2023-06-19T06:18:11;20.70;99.90
10296;DHT22;5193;51.032;6.356;2023-06-19T06:20:37;20.70;99.90
10296;DHT22;5193;51.032;6.356;2023-06-19T06:23:02;20.70;99.90
10296;DHT22;5193;51.032;6.356;2023-06-19T06:25:28;20.60;99.90
10296;DHT22;5193;51.032;6.356;2023-06-19T06:27:54;20.70;99.90
10296;DHT22;5193;51.032;6.356;2023-06-19T06:30:20;20.70;99.90
10296;DHT22;5193;51.032;6.356;2023-06-19T06:32:45;20.80;99.90
10296;DHT22;5193;51.032;6.356;2023-06-19T06:35:11;20.80;99.90
10296;DHT22;5193;51.032;6.356;2023-06-19T06:37:36;20.90;99.90
10296;DHT22;5193;51.032;6.356;2023-06-19T06:40:02;20.90;99.90
10296;DHT22;5193;51.032;6.356;2023-06-19T06:42:31;20.80;99.90
10296;DHT22;5193;51.032;6.356;2023-06-19T06:44:57;20.80;99.90
10296;DHT22;5193;51.032;6.356;2023-06-19T06:47:22;20.70;99.90
10296;DHT22;5193;51.032;6.356;2023-06-19T06:49:48;20.50;99.90
10296;DHT22;5193;51.032;6.356;2023-06-19T06:52:13;20.50;99.90
10296;DHT22;5193;51.032;6.356;2023-06-19T06:54:39;20.40;99.90
10296;DHT22;5193;51.032;6.356;2023-06-19T06:57:05;20.30;99.90
10296;DHT22;5193;51.032;6.356;2023-06-19T06:59:30;20.30;99.90
10296;DHT22;5193;51.032;6.356;2023-06-19T07:01:56;20.30;99.90
10296;DHT22;5193;51.032;6.356;2023-06-19T07:04:22;20.30;99.90
10296;DHT22;5193;51.032;6.356;2023-06-19T07:06:48;20.30;99.90
10296;DHT22;5193;51.032;6.356;2023-06-19T07:09:14;20.30;99.90
10296;DHT22;5193;51.032;6.356;2023-06-19T07:11:40;20.50;99.90
10296;DHT22;5193;51.032;6.356;2023-06-19T07:14:06;20.50;99.90
10296;DHT22;5193;51.032;6.356;2023-06-19T07:16:31;20.70;99.90
10296;DHT22;5193;51.032;6.356;2023-06-19T07:18:57;20.90;99.90
10296;DHT22;5193;51.032;6.356;2023-06-19T07:21:23;21.00;99.90
10296;DHT22;5193;51.032;6.356;2023-06-19T07:23:49;21.20;99.90
10296;DHT22;5193;51.032;6.356;2023-06-19T07:26:14;21.20;99.90
10296;DHT22;5193;51.032;6.356;2023-06-19T07:28:41;21.40;99.90
10296;DHT22;5193;51.032;6.356;2023-06-19T07:31:07;21.50;99.90
10296;DHT22;5193;51.032;6.356;2023-06-19T07:33:32;21.50;99.90
10296;DHT22;5193;51.032;6.356;2023-06-19T07:35:58;21.70;99.90
10296;DHT22;5193;51.032;6.356;2023-06-19T07:38:24;21.70;99.90
10296;DHT22;5193;51.032;6.356;2023-06-19T07:40:50;21.80;99.90
10296;DHT22;5193;51.032;6.356;2023-06-19T07:43:16;21.80;99.90
10296;DHT22;5193;51.032;6.356;2023-06-19T07:45:42;21.90;99.90
10296;DHT22;5193;51.032;6.356;2023-06-19T07:48:08;22.00;99.90
10296;DHT22;5193;51.032;6.356;2023-06-19T07:50:33;22.10;99.90
10296;DHT22;5193;51.032;6.356;2023-06-19T07:52:59;22.10;99.90
10296;DHT22;5193;51.032;6.356;2023-06-19T07:55:25;22.20;99.90
10296;DHT22;5193;51.032;6.356;2023-06-19T07:57:50;22.40;99.90
10296;DHT22;5193;51.032;6.356;2023-06-19T08:00:17;22.60;99.90
10296;DHT22;5193;51.032;6.356;2023-06-19T08:02:43;22.80;99.90
10296;DHT22;5193;51.032;6.356;2023-06-19T08:05:10;22.90;99.90
10296;DHT22;5193;51.032;6.356;2023-06-19T08:07:35;23.10;99.90
10296;DHT22;5193;51.032;6.356;2023-06-19T08:10:02;23.20;99.90
10296;DHT22;5193;51.032;6.356;2023-06-19T08:12:29;23.40;99.90
10296;DHT22;5193;51.032;6.356;2023-06-19T08:14:55;23.60;99.90
10296;DHT22;5193;51.032;6.356;2023-06-19T08:17:20;23.70;99.90
10296;DHT22;5193;51.032;6.356;2023-06-19T08:19:47;23.70;99.90
10296;DHT22;5193;51.032;6.356;2023-06-19T08:22:12;23.70;99.90
10296;DHT22;5193;51.032;6.356;2023-06-19T08:24:38;23.90;99.90
10296;DHT22;5193;51.032;6.356;2023-06-19T08:27:06;24.00;99.90
10296;DHT22;5193;51.032;6.356;2023-06-19T08:29:32;24.10;99.90
10296;DHT22;5193;51.032;6.356;2023-06-19T08:31:58;24.10;99.90
10296;DHT22;5193;51.032;6.356;2023-06-19T08:34:23;24.10;99.90
10296;DHT22;5193;51.032;6.356;2023-06-19T08:36:49;24.20;99.90
10296;DHT22;5193;51.032;6.356;2023-06-19T08:39:15;24.20;99.90
10296;DHT22;5193;51.032;6.356;2023-06-19T08:41:41;24.20;99.90
10296;DHT22;5193;51.032;6.356;2023-06-19T08:44:08;24.30;99.90
10296;DHT22;5193;51.032;6.356;2023-06-19T08:46:35;24.40;99.90
10296;DHT22;5193;51.032;6.356;2023-06-19T08:49:02;24.40;99.90
10296;DHT22;5193;51.032;6.356;2023-06-19T08:51:28;24.50;99.90
10296;DHT22;5193;51.032;6.356;2023-06-19T08:54:00;24.50;99.90
10296;DHT22;5193;51.032;6.356;2023-06-19T08:56:26;24.60;99.90
10296;DHT22;5193;51.032;6.356;2023-06-19T08:58:53;24.60;99.90
10296;DHT22;5193;51.032;6.356;2023-06-19T09:01:19;24.70;99.90
10296;DHT22;5193;51.032;6.356;2023-06-19T09:03:46;24.70;99.90
10296;DHT22;5193;51.032;6.356;2023-06-19T09:06:15;24.80;99.90
10296;DHT22;5193;51.032;6.356;2023-06-19T09:08:41;24.90;99.90
10296;DHT22;5193;51.032;6.356;2023-06-19T09:11:07;25.00;99.90
10296;DHT22;5193;51.032;6.356;2023-06-19T09:13:33;25.10;99.90
10296;DHT22;5193;51.032;6.356;2023-06-19T09:16:01;25.20;99.90
10296;DHT22;5193;51.032;6.356;2023-06-19T09:18:41;25.20;99.90
10296;DHT22;5193;51.032;6.356;2023-06-19T09:21:18;25.20;99.90
10296;DHT22;5193;51.032;6.356;2023-06-19T09:23:44;25.20;99.90
10296;DHT22;5193;51.032;6.356;2023-06-19T09:26:10;25.30;99.90
10296;DHT22;5193;51.032;6.356;2023-06-19T09:28:41;25.30;99.90
10296;DHT22;5193;51.032;6.356;2023-06-19T09:31:08;25.40;99.90
10296;DHT22;5193;51.032;6.356;2023-06-19T09:33:34;25.60;99.90
10296;DHT22;5193;51.032;6.356;2023-06-19T09:36:01;25.70;99.90
10296;DHT22;5193;51.032;6.356;2023-06-19T09:38:29;25.80;99.90
10296;DHT22;5193;51.032;6.356;2023-06-19T09:40:56;25.80;99.90
10296;DHT22;5193;51.032;6.356;2023-06-19T09:43:39;25.80;99.90
10296;DHT22;5193;51.032;6.356;2023-06-19T09:46:06;25.90;99.90
10296;DHT22;5193;51.032;6.356;2023-06-19T09:48:34;26.10;99.90
10296;DHT22;5193;51.032;6.356;2023-06-19T09:53:37;26.30;99.90
10296;DHT22;5193;51.032;6.356;2023-06-19T09:56:03;26.40;99.90
10296;DHT22;5193;51.032;6.356;2023-06-19T09:58:29;26.50;99.90
10296;DHT22;5193;51.032;6.356;2023-06-19T10:00:56;26.50;99.90
10296;DHT22;5193;51.032;6.356;2023-06-19T10:03:30;26.60;99.90
10296;DHT22;5193;51.032;6.356;2023-06-19T10:06:00;26.70;99.90
10296;DHT22;5193;51.032;6.356;2023-06-19T10:08:31;26.80;99.90
10296;DHT22;5193;51.032;6.356;2023-06-19T10:10:57;26.90;99.90
10296;DHT22;5193;51.032;6.356;2023-06-19T10:13:34;26.90;99.90
10296;DHT22;5193;51.032;6.356;2023-06-19T10:16:00;27.00;99.90
10296;DHT22;5193;51.032;6.356;2023-06-19T10:18:26;27.00;99.90
10296;DHT22;5193;51.032;6.356;2023-06-19T10:20:54;27.10;99.90
10296;DHT22;5193;51.032;6.356;2023-06-19T10:23:22;27.20;99.90
10296;DHT22;5193;51.032;6.356;2023-06-19T10:28:21;27.30;99.90
10296;DHT22;5193;51.032;6.356;2023-06-19T10:33:20;27.50;99.90
10296;DHT22;5193;51.032;6.356;2023-06-19T10:35:46;27.60;99.90
10296;DHT22;5193;51.032;6.356;2023-06-19T10:38:15;27.50;99.90
10296;DHT22;5193;51.032;6.356;2023-06-19T10:40:40;27.40;99.90
10296;DHT22;5193;51.032;6.356;2023-06-19T10:43:06;27.50;99.90
10296;DHT22;5193;51.032;6.356;2023-06-19T10:45:32;27.60;99.90
10296;DHT22;5193;51.032;6.356;2023-06-19T10:48:01;27.80;99.90
10296;DHT22;5193;51.032;6.356;2023-06-19T10:50:34;27.90;99.90
10296;DHT22;5193;51.032;6.356;2023-06-19T10:53:02;27.90;99.90
10296;DHT22;5193;51.032;6.356;2023-06-19T10:55:27;28.00;99.90
10296;DHT22;5193;51.032;6.356;2023-06-19T10:57:53;28.10;99.90
10296;DHT22;5193;51.032;6.356;2023-06-19T11:00:32;28.10;99.90
10296;DHT22;5193;51.032;6.356;2023-06-19T11:02:58;28.20;99.90
10296;DHT22;5193;51.032;6.356;2023-06-19T11:05:26;28.30;99.90
10296;DHT22;5193;51.032;6.356;2023-06-19T11:07:57;28.50;99.90
10296;DHT22;5193;51.032;6.356;2023-06-19T11:10:25;28.50;99.90
10296;DHT22;5193;51.032;6.356;2023-06-19T11:12:58;28.60;99.90
10296;DHT22;5193;51.032;6.356;2023-06-19T11:15:31;28.60;99.90
10296;DHT22;5193;51.032;6.356;2023-06-19T11:17:58;28.60;99.90
10296;DHT22;5193;51.032;6.356;2023-06-19T11:20:24;28.80;99.90
10296;DHT22;5193;51.032;6.356;2023-06-19T11:22:55;28.90;99.90
10296;DHT22;5193;51.032;6.356;2023-06-19T11:25:22;29.10;99.90
10296;DHT22;5193;51.032;6.356;2023-06-19T11:27:47;29.30;99.90
10296;DHT22;5193;51.032;6.356;2023-06-19T11:30:18;29.30;99.90
10296;DHT22;5193;51.032;6.356;2023-06-19T11:32:46;29.50;99.90
10296;DHT22;5193;51.032;6.356;2023-06-19T11:35:16;29.60;99.90
10296;DHT22;5193;51.032;6.356;2023-06-19T11:37:43;29.80;99.90
10296;DHT22;5193;51.032;6.356;2023-06-19T11:40:11;30.00;99.90
10296;DHT22;5193;51.032;6.356;2023-06-19T11:42:51;30.00;99.90
10296;DHT22;5193;51.032;6.356;2023-06-19T11:45:17;30.00;99.90
10296;DHT22;5193;51.032;6.356;2023-06-19T11:47:44;30.00;99.90
10296;DHT22;5193;51.032;6.356;2023-06-19T11:50:10;30.00;99.90
10296;DHT22;5193;51.032;6.356;2023-06-19T11:52:36;30.10;99.90
10296;DHT22;5193;51.032;6.356;2023-06-19T11:55:02;30.20;99.90
10296;DHT22;5193;51.032;6.356;2023-06-19T11:57:28;30.10;99.90
10296;DHT22;5193;51.032;6.356;2023-06-19T11:59:53;30.10;99.90
10296;DHT22;5193;51.032;6.356;2023-06-19T12:02:19;30.20;99.90
10296;DHT22;5193;51.032;6.356;2023-06-19T12:04:45;30.30;99.90
10296;DHT22;5193;51.032;6.356;2023-06-19T12:07:10;30.40;99.90
10296;DHT22;5193;51.032;6.356;2023-06-19T12:09:37;30.50;99.90
10296;DHT22;5193;51.032;6.356;2023-06-19T12:12:04;30.50;99.90
10296;DHT22;5193;51.032;6.356;2023-06-19T12:14:30;30.50;99.90
10296;DHT22;5193;51.032;6.356;2023-06-19T12:16:56;30.50;99.90
10296;DHT22;5193;51.032;6.356;2023-06-19T12:19:21;30.50;99.90
10296;DHT22;5193;51.032;6.356;2023-06-19T12:21:47;30.40;99.90
10296;DHT22;5193;51.032;6.356;2023-06-19T12:24:13;30.30;99.90
10296;DHT22;5193;51.032;6.356;2023-06-19T12:26:38;30.40;99.90
10296;DHT22;5193;51.032;6.356;2023-06-19T12:29:06;30.50;99.90
10296;DHT22;5193;51.032;6.356;2023-06-19T12:31:33;30.50;99.90
10296;DHT22;5193;51.032;6.356;2023-06-19T12:33:59;30.50;99.90
10296;DHT22;5193;51.032;6.356;2023-06-19T12:36:26;30.50;99.90
10296;DHT22;5193;51.032;6.356;2023-06-19T12:38:53;30.50;99.90
10296;DHT22;5193;51.032;6.356;2023-06-19T12:41:20;30.70;99.90
10296;DHT22;5193;51.032;6.356;2023-06-19T12:43:45;30.80;99.90
10296;DHT22;5193;51.032;6.356;2023-06-19T12:46:13;30.80;99.90
10296;DHT22;5193;51.032;6.356;2023-06-19T12:48:40;30.70;99.90
10296;DHT22;5193;51.032;6.356;2023-06-19T12:51:06;30.60;99.90
10296;DHT22;5193;51.032;6.356;2023-06-19T12:53:32;30.50;99.90
10296;DHT22;5193;51.032;6.356;2023-06-19T12:55:58;30.70;99.90
10296;DHT22;5193;51.032;6.356;2023-06-19T12:58:24;30.70;99.90
10296;DHT22;5193;51.032;6.356;2023-06-19T13:00:50;30.90;99.90
10296;DHT22;5193;51.032;6.356;2023-06-19T13:03:15;31.00;99.90
10296;DHT22;5193;51.032;6.356;2023-06-19T13:05:41;31.10;99.90
10296;DHT22;5193;51.032;6.356;2023-06-19T13:08:06;31.00;99.90
10296;DHT22;5193;51.032;6.356;2023-06-19T13:10:32;30.90;99.90
10296;DHT22;5193;51.032;6.356;2023-06-19T13:12:58;31.00;99.90
10296;DHT22;5193;51.032;6.356;2023-06-19T13:15:24;31.00;99.90
10296;DHT22;5193;51.032;6.356;2023-06-19T13:17:50;31.10;99.90
10296;DHT22;5193;51.032;6.356;2023-06-19T13:20:15;31.30;99.90
10296;DHT22;5193;51.032;6.356;2023-06-19T13:22:41;31.50;99.90
10296;DHT22;5193;51.032;6.356;2023-06-19T13:25:07;31.70;99.90
10296;DHT22;5193;51.032;6.356;2023-06-19T13:27:33;31.60;99.90
10296;DHT22;5193;51.032;6.356;2023-06-19T13:30:00;31.50;99.90
10296;DHT22;5193;51.032;6.356;2023-06-19T13:32:26;31.50;99.90
10296;DHT22;5193;51.032;6.356;2023-06-19T13:34:51;31.60;99.90
10296;DHT22;5193;51.032;6.356;2023-06-19T13:37:18;31.70;99.90
10296;DHT22;5193;51.032;6.356;2023-06-19T13:39:45;31.70;99.90
10296;DHT22;5193;51.032;6.356;2023-06-19T13:42:11;31.80;99.90
10296;DHT22;5193;51.032;6.356;2023-06-19T13:44:37;31.80;99.90
10296;DHT22;5193;51.032;6.356;2023-06-19T13:47:03;31.80;99.90
10296;DHT22;5193;51.032;6.356;2023-06-19T13:49:29;31.80;99.90
10296;DHT22;5193;51.032;6.356;2023-06-19T13:51:55;31.80;99.90
10296;DHT22;5193;51.032;6.356;2023-06-19T13:54:21;32.00;99.90
10296;DHT22;5193;51.032;6.356;2023-06-19T13:56:47;32.20;99.90
10296;DHT22;5193;51.032;6.356;2023-06-19T13:59:14;32.40;99.90
10296;DHT22;5193;51.032;6.356;2023-06-19T14:01:40;32.40;99.90
10296;DHT22;5193;51.032;6.356;2023-06-19T14:04:06;32.30;99.90
10296;DHT22;5193;51.032;6.356;2023-06-19T14:06:34;32.10;98.70
10296;DHT22;5193;51.032;6.356;2023-06-19T14:09:00;31.90;97.80
10296;DHT22;5193;51.032;6.356;2023-06-19T14:11:25;31.70;99.90
10296;DHT22;5193;51.032;6.356;2023-06-19T14:13:51;31.70;99.90
10296;DHT22;5193;51.032;6.356;2023-06-19T14:16:16;31.80;99.90
10296;DHT22;5193;51.032;6.356;2023-06-19T14:18:42;31.70;99.10
10296;DHT22;5193;51.032;6.356;2023-06-19T14:21:08;31.80;99.70
10296;DHT22;5193;51.032;6.356;2023-06-19T14:23:33;31.90;99.90
10296;DHT22;5193;51.032;6.356;2023-06-19T14:26:08;31.70;98.10
10296;DHT22;5193;51.032;6.356;2023-06-19T14:28:33;31.60;99.90
10296;DHT22;5193;51.032;6.356;2023-06-19T14:30:59;31.50;99.90
10296;DHT22;5193;51.032;6.356;2023-06-19T14:33:24;31.60;99.90
10296;DHT22;5193;51.032;6.356;2023-06-19T14:35:50;31.80;99.90
10296;DHT22;5193;51.032;6.356;2023-06-19T14:38:15;32.00;99.90
10296;DHT22;5193;51.032;6.356;2023-06-19T14:40:41;32.20;99.90
10296;DHT22;5193;51.032;6.356;2023-06-19T14:43:07;32.40;99.90
10296;DHT22;5193;51.032;6.356;2023-06-19T14:45:35;32.50;99.90
10296;DHT22;5193;51.032;6.356;2023-06-19T14:48:01;32.60;99.90
10296;DHT22;5193;51.032;6.356;2023-06-19T14:50:26;32.80;99.90
10296;DHT22;5193;51.032;6.356;2023-06-19T14:52:52;32.90;99.90
10296;DHT22;5193;51.032;6.356;2023-06-19T14:55:17;32.60;96.20
10296;DHT22;5193;51.032;6.356;2023-06-19T14:57:43;32.50;99.10
10296;DHT22;5193;51.032;6.356;2023-06-19T15:00:09;32.60;99.90
10296;DHT22;5193;51.032;6.356;2023-06-19T15:02:35;32.70;98.80
10296;DHT22;5193;51.032;6.356;2023-06-19T15:05:01;32.80;99.10
10296;DHT22;5193;51.032;6.356;2023-06-19T15:07:26;32.80;97.20
10296;DHT22;5193;51.032;6.356;2023-06-19T15:09:52;32.90;98.60
10296;DHT22;5193;51.032;6.356;2023-06-19T15:12:17;33.00;97.40
10296;DHT22;5193;51.032;6.356;2023-06-19T15:14:44;32.90;97.50
10296;DHT22;5193;51.032;6.356;2023-06-19T15:17:10;32.90;97.20
10296;DHT22;5193;51.032;6.356;2023-06-19T15:19:35;32.80;97.40
10296;DHT22;5193;51.032;6.356;2023-06-19T15:22:01;32.80;97.00
10296;DHT22;5193;51.032;6.356;2023-06-19T15:24:26;32.60;96.20
10296;DHT22;5193;51.032;6.356;2023-06-19T15:26:52;32.50;95.20
10296;DHT22;5193;51.032;6.356;2023-06-19T15:29:17;32.60;97.10
10296;DHT22;5193;51.032;6.356;2023-06-19T15:31:43;32.60;97.50
10296;DHT22;5193;51.032;6.356;2023-06-19T15:34:08;32.70;98.70
10296;DHT22;5193;51.032;6.356;2023-06-19T15:36:34;33.00;98.00
10296;DHT22;5193;51.032;6.356;2023-06-19T15:39:00;33.00;97.70
10296;DHT22;5193;51.032;6.356;2023-06-19T15:41:26;33.10;97.00
10296;DHT22;5193;51.032;6.356;2023-06-19T15:43:52;33.20;96.00
10296;DHT22;5193;51.032;6.356;2023-06-19T15:46:17;33.20;93.60
10296;DHT22;5193;51.032;6.356;2023-06-19T15:48:43;33.00;93.40